sensor_id;sensor_type;location;lat;lon;timestamp;P1;durP1;ratioP1;P2;durP2;ratioP2
19826;SDS011;10074;52.018;4.726;2022-08-03T00:02:33;2.80;;;1.37;;
19826;SDS011;10074;52.018;4.726;2022-08-03T00:07:33;1.52;;;0.65;;
19826;SDS011;10074;52.018;4.726;2022-08-03T00:12:34;6.45;;;1.48;;
19826;SDS011;10074;52.018;4.726;2022-08-03T00:17:35;2.22;;;0.90;;
19826;SDS011;10074;52.018;4.726;2022-08-03T00:22:35;3.13;;;0.70;;
19826;SDS011;10074;52.018;4.726;2022-08-03T00:27:35;1.38;;;0.63;;
19826;SDS011;10074;52.018;4.726;2022-08-03T00:32:36;1.40;;;0.50;;
19826;SDS011;10074;52.018;4.726;2022-08-03T00:37:36;7.78;;;2.22;;
19826;SDS011;10074;52.018;4.726;2022-08-03T00:42:47;3.63;;;1.73;;
19826;SDS011;10074;52.018;4.726;2022-08-03T00:47:49;3.03;;;0.93;;
19826;SDS011;10074;52.018;4.726;2022-08-03T00:52:53;1.60;;;0.68;;
19826;SDS011;10074;52.018;4.726;2022-08-03T00:57:55;1.25;;;0.73;;
19826;SDS011;10074;52.018;4.726;2022-08-03T01:02:56;2.83;;;0.95;;
19826;SDS011;10074;52.018;4.726;2022-08-03T01:13:36;2.20;;;0.80;;
19826;SDS011;10074;52.018;4.726;2022-08-03T01:18:44;4.63;;;0.70;;
19826;SDS011;10074;52.018;4.726;2022-08-03T01:24:15;1.77;;;0.55;;
19826;SDS011;10074;52.018;4.726;2022-08-03T01:29:51;1.73;;;1.15;;
19826;SDS011;10074;52.018;4.726;2022-08-03T01:34:58;3.53;;;1.10;;
19826;SDS011;10074;52.018;4.726;2022-08-03T01:40:02;3.05;;;1.85;;
19826;SDS011;10074;52.018;4.726;2022-08-03T01:45:06;1.35;;;0.75;;
19826;SDS011;10074;52.018;4.726;2022-08-03T01:50:10;3.97;;;1.65;;
19826;SDS011;10074;52.018;4.726;2022-08-03T01:55:12;1.35;;;0.63;;
19826;SDS011;10074;52.018;4.726;2022-08-03T02:00:13;1.38;;;1.00;;
19826;SDS011;10074;52.018;4.726;2022-08-03T02:05:14;4.50;;;0.90;;
19826;SDS011;10074;52.018;4.726;2022-08-03T02:10:17;3.60;;;0.95;;
19826;SDS011;10074;52.018;4.726;2022-08-03T02:15:20;2.88;;;1.05;;
19826;SDS011;10074;52.018;4.726;2022-08-03T02:20:21;1.58;;;0.80;;
19826;SDS011;10074;52.018;4.726;2022-08-03T02:25:23;4.60;;;1.02;;
19826;SDS011;10074;52.018;4.726;2022-08-03T02:30:26;1.17;;;0.80;;
19826;SDS011;10074;52.018;4.726;2022-08-03T02:35:32;5.43;;;1.75;;
19826;SDS011;10074;52.018;4.726;2022-08-03T02:40:34;5.18;;;1.60;;
19826;SDS011;10074;52.018;4.726;2022-08-03T02:45:37;2.97;;;0.93;;
19826;SDS011;10074;52.018;4.726;2022-08-03T02:50:43;2.47;;;1.33;;
19826;SDS011;10074;52.018;4.726;2022-08-03T02:55:45;2.17;;;1.20;;
19826;SDS011;10074;52.018;4.726;2022-08-03T03:00:47;14.95;;;1.85;;
19826;SDS011;10074;52.018;4.726;2022-08-03T03:05:50;4.95;;;1.38;;
19826;SDS011;10074;52.018;4.726;2022-08-03T03:10:52;3.88;;;1.17;;
19826;SDS011;10074;52.018;4.726;2022-08-03T03:15:55;2.72;;;1.55;;
19826;SDS011;10074;52.018;4.726;2022-08-03T03:20:59;1.77;;;1.60;;
19826;SDS011;10074;52.018;4.726;2022-08-03T03:26:01;2.42;;;1.15;;
19826;SDS011;10074;52.018;4.726;2022-08-03T03:31:03;8.35;;;0.90;;
19826;SDS011;10074;52.018;4.726;2022-08-03T03:36:05;9.82;;;1.92;;
19826;SDS011;10074;52.018;4.726;2022-08-03T03:41:06;1.67;;;0.77;;
19826;SDS011;10074;52.018;4.726;2022-08-03T03:46:06;4.05;;;1.20;;
19826;SDS011;10074;52.018;4.726;2022-08-03T03:51:07;6.00;;;1.40;;
19826;SDS011;10074;52.018;4.726;2022-08-03T03:56:08;2.35;;;1.00;;
19826;SDS011;10074;52.018;4.726;2022-08-03T04:01:09;3.70;;;1.58;;
19826;SDS011;10074;52.018;4.726;2022-08-03T04:06:09;4.93;;;1.17;;
19826;SDS011;10074;52.018;4.726;2022-08-03T04:11:30;1.80;;;0.95;;
19826;SDS011;10074;52.018;4.726;2022-08-03T04:16:37;2.20;;;0.90;;
19826;SDS011;10074;52.018;4.726;2022-08-03T04:21:41;2.88;;;1.30;;
19826;SDS011;10074;52.018;4.726;2022-08-03T04:26:43;2.83;;;1.17;;
19826;SDS011;10074;52.018;4.726;2022-08-03T04:31:45;4.47;;;1.30;;
19826;SDS011;10074;52.018;4.726;2022-08-03T04:36:48;2.22;;;1.15;;
19826;SDS011;10074;52.018;4.726;2022-08-03T04:41:57;4.43;;;1.48;;
19826;SDS011;10074;52.018;4.726;2022-08-03T04:47:00;2.17;;;0.98;;
19826;SDS011;10074;52.018;4.726;2022-08-03T04:52:01;2.00;;;1.00;;
19826;SDS011;10074;52.018;4.726;2022-08-03T04:57:03;5.03;;;1.48;;
19826;SDS011;10074;52.018;4.726;2022-08-03T05:02:03;1.90;;;1.00;;
19826;SDS011;10074;52.018;4.726;2022-08-03T05:07:04;2.73;;;0.87;;
19826;SDS011;10074;52.018;4.726;2022-08-03T05:12:05;4.07;;;1.10;;
19826;SDS011;10074;52.018;4.726;2022-08-03T05:17:06;3.22;;;1.25;;
19826;SDS011;10074;52.018;4.726;2022-08-03T05:22:07;2.30;;;1.10;;
19826;SDS011;10074;52.018;4.726;2022-08-03T05:27:08;4.22;;;2.53;;
19826;SDS011;10074;52.018;4.726;2022-08-03T05:32:08;4.57;;;1.40;;
19826;SDS011;10074;52.018;4.726;2022-08-03T05:37:09;2.78;;;1.45;;
19826;SDS011;10074;52.018;4.726;2022-08-03T05:42:10;9.15;;;2.47;;
19826;SDS011;10074;52.018;4.726;2022-08-03T05:47:10;3.40;;;1.40;;
19826;SDS011;10074;52.018;4.726;2022-08-03T05:52:10;2.75;;;1.60;;
19826;SDS011;10074;52.018;4.726;2022-08-03T05:57:11;5.15;;;1.95;;
19826;SDS011;10074;52.018;4.726;2022-08-03T06:02:12;3.17;;;1.48;;
19826;SDS011;10074;52.018;4.726;2022-08-03T06:07:12;3.95;;;1.27;;
19826;SDS011;10074;52.018;4.726;2022-08-03T06:12:12;5.75;;;1.80;;
19826;SDS011;10074;52.018;4.726;2022-08-03T06:17:12;7.77;;;3.30;;
19826;SDS011;10074;52.018;4.726;2022-08-03T06:22:13;7.33;;;2.67;;
19826;SDS011;10074;52.018;4.726;2022-08-03T06:27:13;10.55;;;2.85;;
19826;SDS011;10074;52.018;4.726;2022-08-03T06:32:13;6.43;;;3.07;;
19826;SDS011;10074;52.018;4.726;2022-08-03T06:37:14;4.10;;;3.30;;
19826;SDS011;10074;52.018;4.726;2022-08-03T06:42:14;7.13;;;3.05;;
19826;SDS011;10074;52.018;4.726;2022-08-03T06:47:14;4.65;;;2.53;;
19826;SDS011;10074;52.018;4.726;2022-08-03T06:52:15;9.38;;;3.65;;
19826;SDS011;10074;52.018;4.726;2022-08-03T06:57:15;7.45;;;2.65;;
19826;SDS011;10074;52.018;4.726;2022-08-03T07:02:17;6.40;;;2.03;;
19826;SDS011;10074;52.018;4.726;2022-08-03T07:07:18;6.60;;;2.55;;
19826;SDS011;10074;52.018;4.726;2022-08-03T07:12:19;3.53;;;1.77;;
19826;SDS011;10074;52.018;4.726;2022-08-03T07:17:19;3.58;;;2.42;;
19826;SDS011;10074;52.018;4.726;2022-08-03T07:22:20;4.70;;;2.80;;
19826;SDS011;10074;52.018;4.726;2022-08-03T07:27:20;4.03;;;2.60;;
19826;SDS011;10074;52.018;4.726;2022-08-03T07:32:21;4.65;;;3.40;;
19826;SDS011;10074;52.018;4.726;2022-08-03T07:37:22;6.15;;;2.30;;
19826;SDS011;10074;52.018;4.726;2022-08-03T07:42:22;6.83;;;3.37;;
19826;SDS011;10074;52.018;4.726;2022-08-03T07:47:24;4.82;;;2.50;;
19826;SDS011;10074;52.018;4.726;2022-08-03T07:52:27;10.23;;;4.18;;
19826;SDS011;10074;52.018;4.726;2022-08-03T07:57:45;4.10;;;2.92;;
19826;SDS011;10074;52.018;4.726;2022-08-03T08:02:46;11.27;;;4.32;;
19826;SDS011;10074;52.018;4.726;2022-08-03T08:07:47;6.85;;;3.67;;
19826;SDS011;10074;52.018;4.726;2022-08-03T08:12:47;13.10;;;3.53;;
19826;SDS011;10074;52.018;4.726;2022-08-03T08:17:49;12.60;;;3.55;;
19826;SDS011;10074;52.018;4.726;2022-08-03T08:22:51;6.22;;;3.75;;
19826;SDS011;10074;52.018;4.726;2022-08-03T08:27:52;7.63;;;4.28;;
19826;SDS011;10074;52.018;4.726;2022-08-03T08:32:52;7.95;;;3.83;;
19826;SDS011;10074;52.018;4.726;2022-08-03T08:37:53;4.07;;;3.17;;
19826;SDS011;10074;52.018;4.726;2022-08-03T08:42:53;9.23;;;3.93;;
19826;SDS011;10074;52.018;4.726;2022-08-03T08:47:54;6.40;;;4.20;;
19826;SDS011;10074;52.018;4.726;2022-08-03T08:52:57;5.70;;;3.65;;
19826;SDS011;10074;52.018;4.726;2022-08-03T08:58:01;5.85;;;3.58;;
19826;SDS011;10074;52.018;4.726;2022-08-03T09:03:05;6.22;;;4.15;;
19826;SDS011;10074;52.018;4.726;2022-08-03T09:08:05;10.15;;;4.47;;
19826;SDS011;10074;52.018;4.726;2022-08-03T09:13:06;13.45;;;4.72;;
19826;SDS011;10074;52.018;4.726;2022-08-03T09:18:06;6.43;;;3.58;;
19826;SDS011;10074;52.018;4.726;2022-08-03T09:23:08;8.25;;;3.38;;
19826;SDS011;10074;52.018;4.726;2022-08-03T09:28:11;7.22;;;3.40;;
19826;SDS011;10074;52.018;4.726;2022-08-03T09:33:13;9.73;;;4.13;;
19826;SDS011;10074;52.018;4.726;2022-08-03T09:38:16;7.55;;;4.47;;
19826;SDS011;10074;52.018;4.726;2022-08-03T09:43:25;3.90;;;3.22;;
19826;SDS011;10074;52.018;4.726;2022-08-03T09:48:27;9.43;;;3.17;;
19826;SDS011;10074;52.018;4.726;2022-08-03T09:53:29;3.10;;;2.60;;
19826;SDS011;10074;52.018;4.726;2022-08-03T09:58:29;6.85;;;3.08;;
19826;SDS011;10074;52.018;4.726;2022-08-03T10:03:32;5.93;;;2.30;;
19826;SDS011;10074;52.018;4.726;2022-08-03T10:08:35;7.60;;;3.25;;
19826;SDS011;10074;52.018;4.726;2022-08-03T10:13:35;7.25;;;3.47;;
19826;SDS011;10074;52.018;4.726;2022-08-03T10:18:36;8.18;;;2.67;;
19826;SDS011;10074;52.018;4.726;2022-08-03T10:23:37;11.00;;;4.43;;
19826;SDS011;10074;52.018;4.726;2022-08-03T10:28:39;6.53;;;3.08;;
19826;SDS011;10074;52.018;4.726;2022-08-03T10:33:46;4.57;;;2.40;;
19826;SDS011;10074;52.018;4.726;2022-08-03T10:38:50;6.50;;;2.92;;
19826;SDS011;10074;52.018;4.726;2022-08-03T10:43:52;8.10;;;4.07;;
19826;SDS011;10074;52.018;4.726;2022-08-03T10:48:57;13.32;;;2.88;;
19826;SDS011;10074;52.018;4.726;2022-08-03T10:53:58;6.88;;;2.83;;
19826;SDS011;10074;52.018;4.726;2022-08-03T10:58:59;4.82;;;2.67;;
19826;SDS011;10074;52.018;4.726;2022-08-03T11:14:16;5.47;;;2.78;;
19826;SDS011;10074;52.018;4.726;2022-08-03T11:19:19;5.55;;;3.25;;
19826;SDS011;10074;52.018;4.726;2022-08-03T11:29:36;3.15;;;2.42;;
19826;SDS011;10074;52.018;4.726;2022-08-03T11:40:24;4.55;;;2.47;;
19826;SDS011;10074;52.018;4.726;2022-08-03T11:45:31;3.15;;;1.83;;
19826;SDS011;10074;52.018;4.726;2022-08-03T11:50:35;3.13;;;1.75;;
19826;SDS011;10074;52.018;4.726;2022-08-03T11:55:39;3.28;;;2.95;;
19826;SDS011;10074;52.018;4.726;2022-08-03T12:00:42;5.25;;;2.83;;
19826;SDS011;10074;52.018;4.726;2022-08-03T12:05:47;2.90;;;1.50;;
19826;SDS011;10074;52.018;4.726;2022-08-03T12:10:49;3.45;;;2.10;;
19826;SDS011;10074;52.018;4.726;2022-08-03T12:15:51;2.42;;;1.90;;
19826;SDS011;10074;52.018;4.726;2022-08-03T12:20:54;3.63;;;1.63;;
19826;SDS011;10074;52.018;4.726;2022-08-03T12:26:04;5.00;;;1.83;;
19826;SDS011;10074;52.018;4.726;2022-08-03T12:31:07;2.75;;;1.70;;
19826;SDS011;10074;52.018;4.726;2022-08-03T12:36:08;2.08;;;1.55;;
19826;SDS011;10074;52.018;4.726;2022-08-03T12:41:09;4.85;;;2.30;;
19826;SDS011;10074;52.018;4.726;2022-08-03T12:46:17;4.78;;;2.53;;
19826;SDS011;10074;52.018;4.726;2022-08-03T12:51:18;3.10;;;1.55;;
19826;SDS011;10074;52.018;4.726;2022-08-03T12:56:18;6.75;;;2.17;;
19826;SDS011;10074;52.018;4.726;2022-08-03T13:01:19;2.70;;;1.48;;
19826;SDS011;10074;52.018;4.726;2022-08-03T13:06:23;3.58;;;1.60;;
19826;SDS011;10074;52.018;4.726;2022-08-03T13:11:25;2.00;;;1.08;;
19826;SDS011;10074;52.018;4.726;2022-08-03T13:16:26;5.18;;;1.83;;
19826;SDS011;10074;52.018;4.726;2022-08-03T13:21:26;3.10;;;1.20;;
19826;SDS011;10074;52.018;4.726;2022-08-03T13:26:27;3.88;;;1.08;;
19826;SDS011;10074;52.018;4.726;2022-08-03T13:31:27;4.50;;;0.90;;
19826;SDS011;10074;52.018;4.726;2022-08-03T13:36:27;1.67;;;1.00;;
19826;SDS011;10074;52.018;4.726;2022-08-03T13:41:27;4.43;;;1.53;;
19826;SDS011;10074;52.018;4.726;2022-08-03T13:46:28;2.05;;;0.63;;
19826;SDS011;10074;52.018;4.726;2022-08-03T13:51:28;6.00;;;1.35;;
19826;SDS011;10074;52.018;4.726;2022-08-03T13:56:29;5.25;;;1.98;;
19826;SDS011;10074;52.018;4.726;2022-08-03T14:01:30;3.50;;;0.73;;
19826;SDS011;10074;52.018;4.726;2022-08-03T14:06:30;2.42;;;1.23;;
19826;SDS011;10074;52.018;4.726;2022-08-03T14:11:30;5.40;;;1.98;;
19826;SDS011;10074;52.018;4.726;2022-08-03T14:16:31;6.28;;;1.60;;
19826;SDS011;10074;52.018;4.726;2022-08-03T14:21:34;2.25;;;1.25;;
19826;SDS011;10074;52.018;4.726;2022-08-03T14:26:34;1.52;;;1.40;;
19826;SDS011;10074;52.018;4.726;2022-08-03T14:31:35;2.47;;;1.00;;
19826;SDS011;10074;52.018;4.726;2022-08-03T14:36:36;1.73;;;0.88;;
19826;SDS011;10074;52.018;4.726;2022-08-03T14:41:36;1.00;;;0.90;;
19826;SDS011;10074;52.018;4.726;2022-08-03T14:46:36;1.33;;;0.95;;
19826;SDS011;10074;52.018;4.726;2022-08-03T14:51:37;3.45;;;0.93;;
19826;SDS011;10074;52.018;4.726;2022-08-03T14:56:37;1.47;;;0.60;;
19826;SDS011;10074;52.018;4.726;2022-08-03T15:01:37;2.00;;;1.00;;
19826;SDS011;10074;52.018;4.726;2022-08-03T15:06:38;1.40;;;0.80;;
19826;SDS011;10074;52.018;4.726;2022-08-03T15:11:38;0.95;;;0.50;;
19826;SDS011;10074;52.018;4.726;2022-08-03T15:16:39;3.33;;;1.00;;
19826;SDS011;10074;52.018;4.726;2022-08-03T15:21:39;3.92;;;1.17;;
19826;SDS011;10074;52.018;4.726;2022-08-03T15:26:39;6.18;;;1.40;;
19826;SDS011;10074;52.018;4.726;2022-08-03T15:31:40;1.95;;;1.27;;
19826;SDS011;10074;52.018;4.726;2022-08-03T15:36:40;3.58;;;0.80;;
19826;SDS011;10074;52.018;4.726;2022-08-03T15:41:40;14.48;;;1.10;;
19826;SDS011;10074;52.018;4.726;2022-08-03T15:46:40;2.40;;;0.85;;
19826;SDS011;10074;52.018;4.726;2022-08-03T15:51:41;4.00;;;0.97;;
19826;SDS011;10074;52.018;4.726;2022-08-03T15:56:41;2.78;;;0.98;;
19826;SDS011;10074;52.018;4.726;2022-08-03T16:01:44;2.72;;;0.85;;
19826;SDS011;10074;52.018;4.726;2022-08-03T16:06:48;1.13;;;0.82;;
19826;SDS011;10074;52.018;4.726;2022-08-03T16:11:48;1.80;;;0.95;;
19826;SDS011;10074;52.018;4.726;2022-08-03T16:16:48;1.73;;;1.02;;
19826;SDS011;10074;52.018;4.726;2022-08-03T16:21:49;1.70;;;0.68;;
19826;SDS011;10074;52.018;4.726;2022-08-03T16:26:49;3.00;;;0.68;;
19826;SDS011;10074;52.018;4.726;2022-08-03T16:31:50;3.05;;;1.80;;
19826;SDS011;10074;52.018;4.726;2022-08-03T16:36:51;0.90;;;0.52;;
19826;SDS011;10074;52.018;4.726;2022-08-03T16:41:51;1.08;;;0.60;;
19826;SDS011;10074;52.018;4.726;2022-08-03T16:46:52;1.88;;;0.90;;
19826;SDS011;10074;52.018;4.726;2022-08-03T16:51:52;1.38;;;0.50;;
19826;SDS011;10074;52.018;4.726;2022-08-03T16:56:52;1.63;;;0.82;;
19826;SDS011;10074;52.018;4.726;2022-08-03T17:01:55;0.45;;;0.45;;
19826;SDS011;10074;52.018;4.726;2022-08-03T17:06:55;1.23;;;0.70;;
19826;SDS011;10074;52.018;4.726;2022-08-03T17:11:56;3.38;;;1.30;;
19826;SDS011;10074;52.018;4.726;2022-08-03T17:16:57;5.60;;;0.68;;
19826;SDS011;10074;52.018;4.726;2022-08-03T17:22:01;1.40;;;0.65;;
19826;SDS011;10074;52.018;4.726;2022-08-03T17:27:15;0.77;;;0.50;;
19826;SDS011;10074;52.018;4.726;2022-08-03T17:32:17;1.52;;;0.43;;
19826;SDS011;10074;52.018;4.726;2022-08-03T17:37:19;3.13;;;0.82;;
19826;SDS011;10074;52.018;4.726;2022-08-03T17:42:20;0.70;;;0.60;;
19826;SDS011;10074;52.018;4.726;2022-08-03T17:47:22;12.00;;;1.85;;
19826;SDS011;10074;52.018;4.726;2022-08-03T17:52:25;1.35;;;0.80;;
19826;SDS011;10074;52.018;4.726;2022-08-03T18:02:40;1.17;;;0.35;;
19826;SDS011;10074;52.018;4.726;2022-08-03T18:08:28;3.10;;;0.57;;
19826;SDS011;10074;52.018;4.726;2022-08-03T18:13:39;0.85;;;0.55;;
19826;SDS011;10074;52.018;4.726;2022-08-03T18:18:43;1.13;;;0.50;;
19826;SDS011;10074;52.018;4.726;2022-08-03T18:23:43;1.17;;;0.65;;
19826;SDS011;10074;52.018;4.726;2022-08-03T18:28:45;1.95;;;0.85;;
19826;SDS011;10074;52.018;4.726;2022-08-03T18:33:47;1.38;;;0.77;;
19826;SDS011;10074;52.018;4.726;2022-08-03T18:38:49;0.70;;;0.57;;
19826;SDS011;10074;52.018;4.726;2022-08-03T18:43:51;0.90;;;0.50;;
19826;SDS011;10074;52.018;4.726;2022-08-03T18:48:54;0.47;;;0.38;;
19826;SDS011;10074;52.018;4.726;2022-08-03T18:54:06;0.75;;;0.73;;
19826;SDS011;10074;52.018;4.726;2022-08-03T18:59:24;1.23;;;0.40;;
19826;SDS011;10074;52.018;4.726;2022-08-03T19:04:34;2.30;;;0.52;;
19826;SDS011;10074;52.018;4.726;2022-08-03T19:09:52;0.50;;;0.30;;
19826;SDS011;10074;52.018;4.726;2022-08-03T19:15:02;2.15;;;1.33;;
19826;SDS011;10074;52.018;4.726;2022-08-03T19:20:07;2.03;;;0.70;;
19826;SDS011;10074;52.018;4.726;2022-08-03T19:25:09;1.63;;;0.85;;
19826;SDS011;10074;52.018;4.726;2022-08-03T19:30:12;1.83;;;0.95;;
19826;SDS011;10074;52.018;4.726;2022-08-03T19:35:32;1.42;;;1.15;;
19826;SDS011;10074;52.018;4.726;2022-08-03T19:40:33;0.70;;;0.50;;
19826;SDS011;10074;52.018;4.726;2022-08-03T19:45:36;0.65;;;0.30;;
19826;SDS011;10074;52.018;4.726;2022-08-03T19:50:39;2.70;;;1.20;;
19826;SDS011;10074;52.018;4.726;2022-08-03T19:55:40;0.95;;;0.70;;
19826;SDS011;10074;52.018;4.726;2022-08-03T20:00:44;1.60;;;1.10;;
19826;SDS011;10074;52.018;4.726;2022-08-03T20:05:45;1.70;;;0.63;;
19826;SDS011;10074;52.018;4.726;2022-08-03T20:10:47;1.58;;;0.40;;
19826;SDS011;10074;52.018;4.726;2022-08-03T20:15:48;1.40;;;0.70;;
19826;SDS011;10074;52.018;4.726;2022-08-03T20:20:48;2.42;;;0.77;;
19826;SDS011;10074;52.018;4.726;2022-08-03T20:25:54;2.30;;;0.57;;
19826;SDS011;10074;52.018;4.726;2022-08-03T20:30:55;1.92;;;0.80;;
19826;SDS011;10074;52.018;4.726;2022-08-03T20:35:56;2.63;;;1.52;;
19826;SDS011;10074;52.018;4.726;2022-08-03T20:40:56;0.75;;;0.60;;
19826;SDS011;10074;52.018;4.726;2022-08-03T20:45:57;0.90;;;0.80;;
19826;SDS011;10074;52.018;4.726;2022-08-03T20:50:57;4.28;;;2.72;;
19826;SDS011;10074;52.018;4.726;2022-08-03T20:56:01;6.13;;;2.08;;
19826;SDS011;10074;52.018;4.726;2022-08-03T21:01:01;1.98;;;1.40;;
19826;SDS011;10074;52.018;4.726;2022-08-03T21:06:05;6.82;;;2.05;;
19826;SDS011;10074;52.018;4.726;2022-08-03T21:11:10;4.20;;;1.90;;
19826;SDS011;10074;52.018;4.726;2022-08-03T21:16:17;2.67;;;1.92;;
19826;SDS011;10074;52.018;4.726;2022-08-03T21:21:21;2.75;;;1.27;;
19826;SDS011;10074;52.018;4.726;2022-08-03T21:26:23;3.42;;;1.38;;
19826;SDS011;10074;52.018;4.726;2022-08-03T21:31:27;3.28;;;1.33;;
19826;SDS011;10074;52.018;4.726;2022-08-03T21:36:29;0.98;;;0.80;;
19826;SDS011;10074;52.018;4.726;2022-08-03T21:41:31;1.52;;;0.82;;
19826;SDS011;10074;52.018;4.726;2022-08-03T21:46:33;3.08;;;1.58;;
19826;SDS011;10074;52.018;4.726;2022-08-03T21:51:36;2.55;;;1.42;;
19826;SDS011;10074;52.018;4.726;2022-08-03T21:56:40;2.25;;;1.35;;
19826;SDS011;10074;52.018;4.726;2022-08-03T22:01:42;3.33;;;1.50;;
19826;SDS011;10074;52.018;4.726;2022-08-03T22:06:44;1.85;;;1.00;;
19826;SDS011;10074;52.018;4.726;2022-08-03T22:11:45;2.53;;;1.00;;
19826;SDS011;10074;52.018;4.726;2022-08-03T22:16:47;1.58;;;0.90;;
19826;SDS011;10074;52.018;4.726;2022-08-03T22:21:48;1.42;;;1.30;;
19826;SDS011;10074;52.018;4.726;2022-08-03T22:26:48;2.95;;;2.05;;
19826;SDS011;10074;52.018;4.726;2022-08-03T22:32:08;1.00;;;1.00;;
19826;SDS011;10074;52.018;4.726;2022-08-03T22:37:09;2.58;;;1.25;;
19826;SDS011;10074;52.018;4.726;2022-08-03T22:42:11;1.15;;;0.73;;
19826;SDS011;10074;52.018;4.726;2022-08-03T22:47:12;0.82;;;0.70;;
19826;SDS011;10074;52.018;4.726;2022-08-03T22:52:13;0.90;;;0.70;;
19826;SDS011;10074;52.018;4.726;2022-08-03T22:57:14;1.63;;;0.90;;
19826;SDS011;10074;52.018;4.726;2022-08-03T23:02:16;1.05;;;0.90;;
19826;SDS011;10074;52.018;4.726;2022-08-03T23:07:20;1.15;;;0.80;;
19826;SDS011;10074;52.018;4.726;2022-08-03T23:12:26;1.13;;;0.73;;
19826;SDS011;10074;52.018;4.726;2022-08-03T23:17:29;0.77;;;0.60;;
19826;SDS011;10074;52.018;4.726;2022-08-03T23:22:31;0.50;;;0.50;;
19826;SDS011;10074;52.018;4.726;2022-08-03T23:27:33;1.67;;;0.90;;
19826;SDS011;10074;52.018;4.726;2022-08-03T23:32:33;1.10;;;1.00;;
19826;SDS011;10074;52.018;4.726;2022-08-03T23:37:35;4.25;;;2.17;;
19826;SDS011;10074;52.018;4.726;2022-08-03T23:42:39;1.83;;;1.05;;
19826;SDS011;10074;52.018;4.726;2022-08-03T23:47:40;2.85;;;1.05;;
19826;SDS011;10074;52.018;4.726;2022-08-03T23:53:02;0.77;;;0.57;;
